Time,TemperatureF,DewpointF,PressureIn,WindDirection,WindDirectionDegrees,WindSpeedMPH,WindSpeedGustMPH,Humidity,HourlyPrecipIn,Conditions,Clouds,dailyrainin,SoftwareType,DateUTC
2013-01-23 00:03:00,75.8,73.0,30.07,South,171,5.8,5.8,91,0.00,CLR,,0.00,WeatherDisplay:10.37,2013-01-23 06:03:00,
2013-01-23 00:08:00,75.8,73.0,30.07,South,188,5.8,5.8,91,0.00,CLR,,0.00,WeatherDisplay:10.37,2013-01-23 06:08:00,
2013-01-23 00:13:00,75.8,73.0,30.07,SSW,195,6.9,6.9,91,0.00,CLR,,0.00,WeatherDisplay:10.37,2013-01-23 06:13:00,
2013-01-23 00:18:00,75.9,73.4,30.07,South,187,5.8,5.8,92,0.00,CLR,,0.00,WeatherDisplay:10.37,2013-01-23 06:18:00,
2013-01-23 00:23:00,75.9,73.1,30.07,South,187,5.8,5.8,91,0.00,CLR,,0.00,WeatherDisplay:10.37,2013-01-23 06:23:00,
2013-01-23 00:28:00,75.8,73.0,30.07,SSE,156,6.9,6.9,91,0.00,CLR,,0.00,WeatherDisplay:10.37,2013-01-23 06:28:00,
2013-01-23 00:33:00,75.8,73.0,30.06,SSW,207,6.9,6.9,91,0.00,CLR,,0.00,WeatherDisplay:10.37,2013-01-23 06:33:00,
2013-01-23 00:38:00,75.8,73.0,30.06,SSW,193,6.9,6.9,91,0.00,CLR,,0.00,WeatherDisplay:10.37,2013-01-23 06:38:00,
2013-01-23 00:43:00,75.7,72.9,30.06,SSW,208,5.8,5.8,91,0.00,CLR,,0.00,WeatherDisplay:10.37,2013-01-23 06:43:00,
2013-01-23 00:48:00,75.7,73.2,30.06,SSE,153,5.8,5.8,92,0.00,CLR,,0.00,WeatherDisplay:10.37,2013-01-23 06:48:00,
2013-01-23 00:53:00,75.6,72.8,30.06,SSW,205,6.9,6.9,91,0.00,CLR,,0.00,WeatherDisplay:10.37,2013-01-23 06:53:00,
2013-01-23 00:58:00,75.6,73.1,30.06,SW,222,6.9,6.9,92,0.00,CLR,,0.00,WeatherDisplay:10.37,2013-01-23 06:58:00,
2013-01-23 01:03:00,75.6,73.1,30.06,SSW,206,8.0,8.0,92,0.00,CLR,,0.00,WeatherDisplay:10.37,2013-01-23 07:03:00,
2013-01-23 01:08:00,75.7,73.2,30.05,SW,226,8.1,8.1,92,0.00,CLR,,0.00,WeatherDisplay:10.37,2013-01-23 07:08:00,
2013-01-23 01:13:00,75.5,73.0,30.05,SSW,201,5.0,5.0,92,0.00,CLR,,0.00,WeatherDisplay:10.37,2013-01-23 07:13:00,
2013-01-23 01:18:00,75.5,73.0,30.05,SSW,197,8.1,8.1,92,0.00,CLR,,0.00,WeatherDisplay:10.37,2013-01-23 07:18:00,
2013-01-23 01:23:00,75.5,73.0,30.05,SSW,198,8.1,8.1,92,0.00,CLR,,0.00,WeatherDisplay:10.37,2013-01-23 07:23:00,
2013-01-23 01:29:00,75.4,72.9,30.05,SSW,201,6.9,6.9,92,0.00,CLR,,0.00,WeatherDisplay:10.37,2013-01-23 07:29:00,
2013-01-23 01:34:00,75.4,72.9,30.05,SW,218,6.9,6.9,92,0.00,CLR,,0.00,WeatherDisplay:10.37,2013-01-23 07:34:00,
2013-01-23 01:39:00,75.5,73.0,30.05,SW,228,5.8,5.8,92,0.00,CLR,,0.00,WeatherDisplay:10.37,2013-01-23 07:39:00,
2013-01-23 01:44:00,75.4,72.6,30.05,WSW,255,6.9,6.9,91,0.00,CLR,,0.00,WeatherDisplay:10.37,2013-01-23 07:44:00,
2013-01-23 01:49:00,75.4,72.6,30.04,SSW,207,7.0,7.0,91,0.00,CLR,,0.00,WeatherDisplay:10.37,2013-01-23 07:49:00,
2013-01-23 01:54:00,75.5,73.0,30.04,WSW,243,4.0,4.0,92,0.00,CLR,,0.00,WeatherDisplay:10.37,2013-01-23 07:54:00,
2013-01-23 01:59:00,75.4,72.9,30.04,SSW,210,5.8,5.8,92,0.00,CLR,,0.00,WeatherDisplay:10.37,2013-01-23 07:59:00,
2013-01-23 02:04:00,75.3,72.5,30.04,West,263,3.5,3.5,91,0.00,CLR,,0.00,WeatherDisplay:10.37,2013-01-23 08:04:00,
2013-01-23 02:09:00,75.3,72.5,30.03,SW,215,5.8,5.8,91,0.00,CLR,,0.00,WeatherDisplay:10.37,2013-01-23 08:09:00,
2013-01-23 02:14:00,75.4,72.6,30.03,WSW,246,1.1,1.1,91,0.00,CLR,,0.00,WeatherDisplay:10.37,2013-01-23 08:14:00,
2013-01-23 02:19:00,75.0,72.2,30.03,West,266,2.3,0.0,91,0.00,CLR,,0.00,WeatherDisplay:10.37,2013-01-23 08:19:00,
2013-01-23 02:24:00,74.6,72.1,30.03,WSW,257,1.1,1.1,92,0.00,CLR,,0.00,WeatherDisplay:10.37,2013-01-23 08:24:00,
2013-01-23 02:29:00,74.4,72.2,30.03,SSE,152,2.0,2.0,93,0.00,CLR,,0.00,WeatherDisplay:10.37,2013-01-23 08:29:00,
2013-01-23 02:34:00,74.6,72.4,30.03,SW,215,4.0,4.0,93,0.00,CLR,,0.00,WeatherDisplay:10.37,2013-01-23 08:34:00,
2013-01-23 02:39:00,75.0,72.5,30.03,SSW,211,5.8,5.8,92,0.00,CLR,,0.00,WeatherDisplay:10.37,2013-01-23 08:39:00,
2013-01-23 02:44:00,75.4,72.6,30.03,West,259,4.6,4.6,91,0.00,CLR,,0.00,WeatherDisplay:10.37,2013-01-23 08:44:00,
2013-01-23 02:49:00,75.0,72.2,30.03,West,276,2.3,2.3,91,0.00,CLR,,0.00,WeatherDisplay:10.37,2013-01-23 08:49:00,
2013-01-23 02:54:00,74.6,72.1,30.03,West,259,3.5,3.5,92,0.00,CLR,,0.00,WeatherDisplay:10.37,2013-01-23 08:54:00,
2013-01-23 02:59:00,74.5,72.0,30.03,West,271,2.3,2.3,92,0.00,CLR,,0.00,WeatherDisplay:10.37,2013-01-23 08:59:00,
2013-01-23 03:04:00,74.4,71.9,30.03,West,262,3.5,3.5,92,0.00,CLR,,0.00,WeatherDisplay:10.37,2013-01-23 09:04:00,
2013-01-23 03:09:00,74.4,71.9,30.03,West,266,3.5,3.5,92,0.00,CLR,,0.00,WeatherDisplay:10.37,2013-01-23 09:09:00,
2013-01-23 03:14:00,74.3,71.8,30.03,WSW,248,3.5,3.5,92,0.00,CLR,,0.00,WeatherDisplay:10.37,2013-01-23 09:14:00,
2013-01-23 03:19:00,74.2,72.0,30.03,WSW,254,4.6,4.6,93,0.00,CLR,,0.00,WeatherDisplay:10.37,2013-01-23 09:19:00,
2013-01-23 03:24:00,74.1,71.6,30.03,WSW,252,3.5,3.5,92,0.00,CLR,,0.00,WeatherDisplay:10.37,2013-01-23 09:24:00,
2013-01-23 03:29:00,74.0,71.8,30.04,West,269,3.5,3.5,93,0.00,CLR,,0.00,WeatherDisplay:10.37,2013-01-23 09:29:00,
2013-01-23 03:34:00,73.9,71.7,30.04,WSW,249,3.5,3.5,93,0.00,CLR,,0.00,WeatherDisplay:10.37,2013-01-23 09:34:00,
2013-01-23 03:39:00,73.9,71.7,30.04,West,273,2.3,2.3,93,0.00,CLR,,0.00,WeatherDisplay:10.37,2013-01-23 09:39:00,
2013-01-23 03:44:00,73.7,71.5,30.04,West,271,3.5,3.5,93,0.00,CLR,,0.00,WeatherDisplay:10.37,2013-01-23 09:44:00,
2013-01-23 03:49:00,73.8,71.6,30.04,West,278,3.5,3.5,93,0.00,CLR,,0.00,WeatherDisplay:10.37,2013-01-23 09:49:00,
2013-01-23 03:55:00,73.8,71.6,30.04,West,274,3.5,3.5,93,0.00,CLR,,0.00,WeatherDisplay:10.37,2013-01-23 09:55:00,
2013-01-23 04:00:00,73.8,71.6,30.04,West,259,3.5,3.5,93,0.00,CLR,,0.00,WeatherDisplay:10.37,2013-01-23 10:00:00,
2013-01-23 04:05:00,73.8,71.6,30.04,WSW,250,3.5,3.5,93,0.00,CLR,,0.00,WeatherDisplay:10.37,2013-01-23 10:05:00,
2013-01-23 04:10:00,73.7,71.5,30.04,West,270,3.5,3.5,93,0.00,CLR,,0.00,WeatherDisplay:10.37,2013-01-23 10:10:00,
2013-01-23 04:15:00,73.6,71.4,30.04,West,259,2.3,2.3,93,0.00,CLR,,0.00,WeatherDisplay:10.37,2013-01-23 10:15:00,
2013-01-23 04:20:00,73.5,71.4,30.04,WNW,287,2.3,2.3,93,0.00,CLR,,0.00,WeatherDisplay:10.37,2013-01-23 10:20:00,
2013-01-23 04:25:00,73.5,71.4,30.04,WSW,252,2.3,2.3,93,0.00,CLR,,0.00,WeatherDisplay:10.37,2013-01-23 10:25:00,
2013-01-23 04:30:00,73.5,71.4,30.04,WSW,254,3.5,3.5,93,0.00,CLR,,0.00,WeatherDisplay:10.37,2013-01-23 10:30:00,
2013-01-23 04:35:00,73.7,71.5,30.04,SW,233,3.5,3.5,93,0.00,CLR,,0.00,WeatherDisplay:10.37,2013-01-23 10:35:00,
2013-01-23 04:40:00,73.7,71.5,30.04,West,264,2.3,2.3,93,0.00,CLR,,0.00,WeatherDisplay:10.37,2013-01-23 10:40:00,
2013-01-23 04:45:00,73.7,71.5,30.05,WNW,283,2.3,2.3,93,0.00,CLR,,0.00,WeatherDisplay:10.37,2013-01-23 10:45:00,
2013-01-23 04:50:00,73.6,71.4,30.04,West,266,4.0,4.0,93,0.00,CLR,,0.00,WeatherDisplay:10.37,2013-01-23 10:50:00,
2013-01-23 04:55:00,73.5,71.4,30.05,West,266,2.3,2.3,93,0.00,CLR,,0.00,WeatherDisplay:10.37,2013-01-23 10:55:00,
2013-01-23 05:00:00,73.4,71.3,30.05,West,281,3.5,3.5,93,0.00,CLR,,0.00,WeatherDisplay:10.37,2013-01-23 11:00:00,
2013-01-23 05:05:00,73.5,71.4,30.05,WNW,284,1.0,1.4,93,0.00,CLR,,0.00,WeatherDisplay:10.37,2013-01-23 11:05:00,
2013-01-23 05:10:00,73.6,71.4,30.05,WNW,283,3.5,3.5,93,0.00,CLR,,0.00,WeatherDisplay:10.37,2013-01-23 11:10:00,
2013-01-23 05:15:00,73.7,71.5,30.05,West,270,3.5,3.5,93,0.00,CLR,,0.00,WeatherDisplay:10.37,2013-01-23 11:15:00,
2013-01-23 05:20:00,73.7,71.5,30.05,West,268,2.3,2.3,93,0.00,CLR,,0.00,WeatherDisplay:10.37,2013-01-23 11:20:00,
2013-01-23 05:25:00,73.7,71.5,30.05,WSW,250,4.0,4.0,93,0.00,CLR,,0.00,WeatherDisplay:10.37,2013-01-23 11:25:00,
2013-01-23 05:30:00,73.7,71.5,30.06,West,272,2.0,5.0,93,0.00,CLR,,0.00,WeatherDisplay:10.37,2013-01-23 11:30:00,
2013-01-23 05:35:00,73.5,71.4,30.06,WSW,256,3.5,3.5,93,0.00,CLR,,0.00,WeatherDisplay:10.37,2013-01-23 11:35:00,
2013-01-23 05:40:00,73.3,71.2,30.06,West,275,2.3,2.3,93,0.00,CLR,,0.00,WeatherDisplay:10.37,2013-01-23 11:40:00,
2013-01-23 05:45:00,73.3,71.2,30.06,West,259,1.0,4.0,93,0.00,CLR,,0.00,WeatherDisplay:10.37,2013-01-23 11:45:00,
2013-01-23 05:50:00,73.2,71.1,30.06,West,264,3.0,3.0,93,0.00,CLR,,0.00,WeatherDisplay:10.37,2013-01-23 11:50:00,
2013-01-23 05:55:00,73.2,71.4,30.06,West,278,2.3,2.3,94,0.00,CLR,,0.00,WeatherDisplay:10.37,2013-01-23 11:55:00,
2013-01-23 06:00:00,73.1,71.3,30.07,West,272,0.0,3.0,94,0.00,CLR,,0.00,WeatherDisplay:10.37,2013-01-23 12:00:00,
2013-01-23 06:05:00,73.1,71.3,30.07,West,277,3.5,3.5,94,0.00,CLR,,0.00,WeatherDisplay:10.37,2013-01-23 12:05:00,
2013-01-23 06:10:00,73.0,71.2,30.07,West,262,2.0,3.0,94,0.00,CLR,,0.00,WeatherDisplay:10.37,2013-01-23 12:10:00,
2013-01-23 06:15:00,73.0,71.2,30.07,WSW,257,0.0,2.0,94,0.00,CLR,,0.00,WeatherDisplay:10.37,2013-01-23 12:15:00,
2013-01-23 06:20:00,73.0,71.2,30.07,WNW,287,2.3,2.3,94,0.00,CLR,,0.00,WeatherDisplay:10.37,2013-01-23 12:20:00,
2013-01-23 06:25:00,73.1,71.3,30.07,West,274,1.0,3.0,94,0.00,CLR,,0.00,WeatherDisplay:10.37,2013-01-23 12:25:00,
2013-01-23 06:30:00,73.2,71.4,30.08,WSW,252,2.3,2.3,94,0.00,CLR,,0.00,WeatherDisplay:10.37,2013-01-23 12:30:00,
2013-01-23 06:35:00,73.3,71.5,30.07,West,267,1.0,3.0,94,0.00,CLR,,0.00,WeatherDisplay:10.37,2013-01-23 12:35:00,
2013-01-23 06:40:00,73.3,71.5,30.08,West,262,1.0,3.0,94,0.00,CLR,,0.00,WeatherDisplay:10.37,2013-01-23 12:40:00,
2013-01-23 06:45:00,73.4,71.6,30.08,West,281,2.3,2.3,94,0.00,CLR,,0.00,WeatherDisplay:10.37,2013-01-23 12:45:00,
2013-01-23 06:50:00,73.6,71.8,30.08,West,264,3.5,3.5,94,0.00,CLR,,0.00,WeatherDisplay:10.37,2013-01-23 12:50:00,
2013-01-23 06:55:00,73.7,71.5,30.08,West,265,3.0,5.0,93,0.00,CLR,,0.00,WeatherDisplay:10.37,2013-01-23 12:55:00,
2013-01-23 07:00:00,73.8,71.6,30.08,WSW,256,3.5,3.5,93,0.00,CLR,,0.00,WeatherDisplay:10.37,2013-01-23 13:00:00,
2013-01-23 07:05:00,73.9,71.7,30.09,West,269,3.5,3.5,93,0.00,CLR,,0.00,WeatherDisplay:10.37,2013-01-23 13:05:00,
2013-01-23 07:10:00,73.9,71.8,30.09,West,270,1.0,3.0,93,0.00,CLR,,0.00,WeatherDisplay:10.37,2013-01-23 13:10:00,
2013-01-23 07:15:00,74.1,72.3,30.09,WSW,250,3.5,3.5,94,0.00,CLR,,0.00,WeatherDisplay:10.37,2013-01-23 13:15:00,
2013-01-23 07:20:00,74.2,72.0,30.09,WSW,255,1.1,1.1,93,0.00,CLR,,0.00,WeatherDisplay:10.37,2013-01-23 13:20:00,
2013-01-23 07:25:00,74.4,72.6,30.09,West,259,0.0,2.0,94,0.00,CLR,,0.00,WeatherDisplay:10.37,2013-01-23 13:25:00,
2013-01-23 07:30:00,74.5,72.3,30.10,WSW,249,1.0,1.0,93,0.00,CLR,,0.00,WeatherDisplay:10.37,2013-01-23 13:30:00,
2013-01-23 07:35:00,74.7,72.5,30.10,WSW,239,1.1,1.1,93,0.00,CLR,,0.00,WeatherDisplay:10.37,2013-01-23 13:35:00,
2013-01-23 07:40:00,74.9,72.7,30.10,WSW,241,1.0,2.0,93,0.00,CLR,,0.00,WeatherDisplay:10.37,2013-01-23 13:40:00,
2013-01-23 07:45:00,75.2,73.0,30.10,South,191,4.0,4.0,93,0.00,CLR,,0.00,WeatherDisplay:10.37,2013-01-23 13:45:00,
2013-01-23 07:50:00,75.5,73.0,30.10,SW,236,3.0,5.0,92,0.00,CLR,,0.00,WeatherDisplay:10.37,2013-01-23 13:50:00,
2013-01-23 07:55:00,75.7,73.2,30.10,WSW,238,2.0,5.0,92,0.00,CLR,,0.00,WeatherDisplay:10.37,2013-01-23 13:55:00,
2013-01-23 08:00:00,75.9,73.4,30.11,SW,229,4.6,4.6,92,0.00,CLR,,0.00,WeatherDisplay:10.37,2013-01-23 14:00:00,
2013-01-23 08:05:00,76.0,73.5,30.11,WSW,252,3.0,6.0,92,0.00,CLR,,0.00,WeatherDisplay:10.37,2013-01-23 14:05:00,
2013-01-23 08:10:00,76.1,73.3,30.11,WSW,257,3.0,7.0,91,0.00,CLR,,0.00,WeatherDisplay:10.37,2013-01-23 14:10:00,
2013-01-23 08:15:00,76.2,73.4,30.11,WSW,257,3.0,6.0,91,0.00,CLR,,0.00,WeatherDisplay:10.37,2013-01-23 14:15:00,
2013-01-23 08:20:00,76.4,73.2,30.11,SW,235,5.8,5.8,90,0.00,CLR,,0.00,WeatherDisplay:10.37,2013-01-23 14:20:00,
2013-01-23 08:25:00,76.5,73.0,30.11,SW,215,10.4,10.4,89,0.00,CLR,,0.00,WeatherDisplay:10.37,2013-01-23 14:25:00,
2013-01-23 08:30:00,76.7,73.2,30.11,WSW,240,3.0,8.0,89,0.00,CLR,,0.00,WeatherDisplay:10.37,2013-01-23 14:30:00,
2013-01-23 08:35:00,76.8,73.3,30.12,WSW,243,8.0,8.0,89,0.00,CLR,,0.00,WeatherDisplay:10.37,2013-01-23 14:35:00,
2013-01-23 08:40:00,76.8,73.0,30.12,West,262,8.1,8.1,88,0.00,CLR,,0.00,WeatherDisplay:10.37,2013-01-23 14:40:00,
2013-01-23 08:45:00,77.0,73.2,30.12,WSW,247,5.0,10.0,88,0.00,CLR,,0.00,WeatherDisplay:10.37,2013-01-23 14:45:00,
2013-01-23 08:50:00,77.0,73.2,30.12,West,270,6.9,6.9,88,0.00,CLR,,0.00,WeatherDisplay:10.37,2013-01-23 14:50:00,
2013-01-23 08:55:00,77.2,73.0,30.12,SW,227,6.0,8.0,87,0.00,CLR,,0.00,WeatherDisplay:10.37,2013-01-23 14:55:00,
2013-01-23 09:00:00,77.4,73.2,30.12,WSW,246,6.0,10.0,87,0.00,CLR,,0.00,WeatherDisplay:10.37,2013-01-23 15:00:00,
2013-01-23 09:05:00,77.6,73.4,30.12,WSW,243,9.2,9.2,87,0.00,CLR,,0.00,WeatherDisplay:10.37,2013-01-23 15:05:00,
2013-01-23 09:10:00,77.6,73.1,30.12,WSW,248,7.0,12.0,86,0.00,CLR,,0.00,WeatherDisplay:10.37,2013-01-23 15:10:00,
2013-01-23 09:15:00,77.8,72.9,30.12,SW,231,6.0,10.0,85,0.00,CLR,,0.00,WeatherDisplay:10.37,2013-01-23 15:15:00,
2013-01-23 09:20:00,77.9,73.0,30.12,SW,226,6.9,6.9,85,0.00,CLR,,0.00,WeatherDisplay:10.37,2013-01-23 15:20:00,
2013-01-23 09:25:00,78.2,73.3,30.12,WSW,257,10.0,10.0,85,0.00,CLR,,0.00,WeatherDisplay:10.37,2013-01-23 15:25:00,
2013-01-23 09:30:00,78.1,73.6,30.12,WSW,246,7.0,12.0,86,0.00,CLR,,0.00,WeatherDisplay:10.37,2013-01-23 15:30:00,
2013-01-23 09:35:00,77.9,73.0,30.13,West,260,6.9,6.9,85,0.00,CLR,,0.00,WeatherDisplay:10.37,2013-01-23 15:35:00,
2013-01-23 09:40:00,78.0,73.1,30.13,WSW,238,10.0,10.0,85,0.00,CLR,,0.00,WeatherDisplay:10.37,2013-01-23 15:40:00,
2013-01-23 09:45:00,78.2,73.7,30.13,West,259,6.0,10.0,86,0.00,CLR,,0.00,WeatherDisplay:10.37,2013-01-23 15:45:00,
2013-01-23 09:50:00,78.3,73.4,30.13,WSW,252,9.0,9.0,85,0.00,CLR,,0.00,WeatherDisplay:10.37,2013-01-23 15:50:00,
2013-01-23 09:55:00,78.3,73.4,30.12,WSW,253,8.0,10.0,85,0.00,CLR,,0.00,WeatherDisplay:10.37,2013-01-23 15:55:00,
2013-01-23 10:00:00,78.1,73.2,30.12,West,281,10.4,10.4,85,0.00,CLR,,0.00,WeatherDisplay:10.37,2013-01-23 16:00:00,
2013-01-23 10:05:00,78.1,73.2,30.13,WSW,254,7.0,10.0,85,0.00,CLR,,0.00,WeatherDisplay:10.37,2013-01-23 16:05:00,
2013-01-23 10:10:00,78.1,73.2,30.12,WSW,253,9.0,0.0,85,0.00,CLR,,0.00,WeatherDisplay:10.37,2013-01-23 16:10:00,
2013-01-23 10:15:00,78.0,73.5,30.12,West,271,7.0,12.0,86,0.00,CLR,,0.00,WeatherDisplay:10.37,2013-01-23 16:15:00,
2013-01-23 10:20:00,78.0,73.5,30.12,WNW,290,6.9,6.9,86,0.00,CLR,,0.00,WeatherDisplay:10.37,2013-01-23 16:20:00,
2013-01-23 10:25:00,78.1,73.6,30.12,West,264,2.0,6.0,86,0.00,CLR,,0.00,WeatherDisplay:10.37,2013-01-23 16:25:00,
2013-01-23 10:30:00,78.3,73.4,30.12,West,260,3.0,7.0,85,0.00,CLR,,0.00,WeatherDisplay:10.37,2013-01-23 16:30:00,
2013-01-23 10:35:00,78.4,73.5,30.12,WSW,242,5.0,10.0,85,0.00,CLR,,0.00,WeatherDisplay:10.37,2013-01-23 16:35:00,
2013-01-23 10:40:00,78.5,73.3,30.12,West,260,9.2,9.2,84,0.00,CLR,,0.00,WeatherDisplay:10.37,2013-01-23 16:40:00,
2013-01-23 10:45:00,78.5,73.3,30.12,WNW,288,8.1,8.1,84,0.00,CLR,,0.00,WeatherDisplay:10.37,2013-01-23 16:45:00,
2013-01-23 10:50:00,78.4,73.2,30.12,WSW,256,7.0,10.0,84,0.00,CLR,,0.00,WeatherDisplay:10.37,2013-01-23 16:50:00,
2013-01-23 10:55:00,78.4,73.2,30.12,WNW,298,4.6,4.6,84,0.00,CLR,,0.00,WeatherDisplay:10.37,2013-01-23 16:55:00,
2013-01-23 11:00:00,78.4,73.2,30.12,WSW,250,9.2,9.2,84,0.00,CLR,,0.00,WeatherDisplay:10.37,2013-01-23 17:00:00,
2013-01-23 11:05:00,78.5,74.0,30.12,WSW,250,8.1,8.1,86,0.00,CLR,,0.00,WeatherDisplay:10.37,2013-01-23 17:05:00,
2013-01-23 11:10:00,78.5,74.0,30.12,WSW,249,11.5,11.5,86,0.00,CLR,,0.00,WeatherDisplay:10.37,2013-01-23 17:10:00,
2013-01-23 11:15:00,78.5,74.0,30.11,West,281,10.4,10.4,86,0.00,CLR,,0.00,WeatherDisplay:10.37,2013-01-23 17:15:00,
2013-01-23 11:20:00,78.4,73.9,30.11,WSW,255,6.0,12.0,86,0.00,CLR,,0.00,WeatherDisplay:10.37,2013-01-23 17:20:00,
2013-01-23 11:25:00,77.7,73.5,30.11,North,356,3.5,3.5,87,0.00,CLR,,0.00,WeatherDisplay:10.37,2013-01-23 17:25:00,
2013-01-23 11:30:00,77.4,73.6,30.11,NNW,327,1.1,1.1,88,0.01,RA,,0.03,WeatherDisplay:10.37,2013-01-23 17:30:00,
2013-01-23 11:35:00,76.9,73.4,30.11,West,266,3.5,3.5,89,0.04,RA,,0.04,WeatherDisplay:10.37,2013-01-23 17:35:00,
2013-01-23 11:40:00,76.6,73.4,30.11,SW,221,1.0,0.0,90,0.05,RA,,0.05,WeatherDisplay:10.37,2013-01-23 17:40:00,
2013-01-23 11:45:00,76.4,73.2,30.11,SW,214,0.0,0.0,90,0.06,RA,,0.08,WeatherDisplay:10.37,2013-01-23 17:45:00,
2013-01-23 11:51:00,75.8,72.7,30.12,WSW,254,9.2,9.2,90,0.33,RA,,0.36,WeatherDisplay:10.37,2013-01-23 17:51:00,
2013-01-23 11:56:00,74.4,71.9,30.12,NW,309,5.8,5.8,92,0.70,RA,,0.74,WeatherDisplay:10.37,2013-01-23 17:56:00,
2013-01-23 12:01:00,73.6,71.4,30.12,West,273,5.8,5.8,93,1.04,RA,,1.09,WeatherDisplay:10.37,2013-01-23 18:01:00,
2013-01-23 12:06:00,73.2,71.4,30.11,West,274,6.9,6.9,94,1.39,RA,,1.42,WeatherDisplay:10.37,2013-01-23 18:06:00,
2013-01-23 12:11:00,73.1,71.6,30.11,West,273,5.8,5.8,95,1.58,RA,,1.60,WeatherDisplay:10.37,2013-01-23 18:11:00,
2013-01-23 12:16:00,73.3,71.8,30.10,West,263,3.5,3.5,95,1.66,RA,,1.67,WeatherDisplay:10.37,2013-01-23 18:16:00,
2013-01-23 12:21:00,73.5,72.3,30.10,West,267,1.1,0.0,96,1.70,RA,,1.70,WeatherDisplay:10.37,2013-01-23 18:21:00,
2013-01-23 12:26:00,73.8,72.6,30.10,WSW,249,2.0,2.0,96,1.73,RA,,1.73,WeatherDisplay:10.37,2013-01-23 18:26:00,
2013-01-23 12:31:00,74.0,72.8,30.09,WNW,285,2.3,2.3,96,1.72,RA,,1.75,WeatherDisplay:10.37,2013-01-23 18:31:00,
2013-01-23 12:36:00,74.5,73.3,30.09,WSW,252,1.1,1.1,96,1.72,RA,,1.76,WeatherDisplay:10.37,2013-01-23 18:36:00,
2013-01-23 12:41:00,75.0,73.8,30.09,NW,311,0.0,0.1,96,1.71,RA,,1.76,WeatherDisplay:10.37,2013-01-23 18:41:00,
2013-01-23 12:46:00,75.4,74.2,30.09,NNW,344,3.0,3.0,96,1.68,CLR,,1.76,WeatherDisplay:10.37,2013-01-23 18:46:00,
2013-01-23 12:51:00,75.6,74.1,30.08,WNW,285,3.5,3.5,95,1.43,CLR,,1.76,WeatherDisplay:10.37,2013-01-23 18:51:00,
2013-01-23 12:56:00,76.1,74.6,30.08,NNW,327,3.5,3.5,95,1.06,CLR,,1.76,WeatherDisplay:10.37,2013-01-23 18:56:00,
2013-01-23 13:01:00,76.5,74.3,30.08,NNW,340,4.6,4.6,93,0.73,RA,,1.77,WeatherDisplay:10.37,2013-01-23 19:01:00,
2013-01-23 13:06:00,76.9,74.4,30.07,WNW,297,3.5,3.5,92,0.38,RA,,1.77,WeatherDisplay:10.37,2013-01-23 19:06:00,
2013-01-23 13:11:00,77.5,75.0,30.07,West,281,3.5,3.5,92,0.19,,,1.77,WeatherDisplay:10.37,2013-01-23 19:11:00,
2013-01-23 13:16:00,78.0,74.8,30.07,NNW,348,2.3,2.5,90,0.11,CLR,,1.77,WeatherDisplay:10.37,2013-01-23 19:16:00,
2013-01-23 13:21:00,78.7,75.2,30.07,NNW,339,2.3,2.3,89,0.07,CLR,,1.77,WeatherDisplay:10.37,2013-01-23 19:21:00,
2013-01-23 13:26:00,78.7,74.2,30.07,WNW,283,4.6,4.6,86,0.04,CLR,,1.77,WeatherDisplay:10.37,2013-01-23 19:26:00,
2013-01-23 13:31:00,78.7,74.5,30.06,WSW,257,3.0,3.0,87,0.02,CLR,,1.77,WeatherDisplay:10.37,2013-01-23 19:31:00,
2013-01-23 13:36:00,78.7,74.2,30.06,WSW,250,4.6,4.6,86,0.01,CLR,,1.77,WeatherDisplay:10.37,2013-01-23 19:36:00,
2013-01-23 13:41:00,78.7,74.2,30.06,NW,319,3.5,3.5,86,0.01,CLR,,1.77,WeatherDisplay:10.37,2013-01-23 19:41:00,
2013-01-23 13:46:00,79.0,74.5,30.05,West,271,3.5,3.5,86,0.01,CLR,,1.77,WeatherDisplay:10.37,2013-01-23 19:46:00,
2013-01-23 13:51:00,79.7,74.8,30.05,North,352,1.1,1.1,85,0.01,CLR,,1.77,WeatherDisplay:10.37,2013-01-23 19:51:00,
2013-01-23 13:56:00,79.7,74.1,30.05,WNW,294,3.5,3.5,83,0.01,CLR,,1.77,WeatherDisplay:10.37,2013-01-23 19:56:00,
2013-01-23 14:01:00,79.5,73.9,30.05,West,263,2.3,2.3,83,0.00,CLR,,1.77,WeatherDisplay:10.37,2013-01-23 20:01:00,
2013-01-23 14:06:00,79.7,74.4,30.05,West,277,2.3,2.3,84,0.00,CLR,,1.77,WeatherDisplay:10.37,2013-01-23 20:06:00,
2013-01-23 14:11:00,79.8,74.5,30.05,NNW,346,4.0,4.0,84,0.00,CLR,,1.77,WeatherDisplay:10.37,2013-01-23 20:11:00,
2013-01-23 14:16:00,79.9,74.6,30.05,NW,307,2.3,2.3,84,0.00,CLR,,1.77,WeatherDisplay:10.37,2013-01-23 20:16:00,
2013-01-23 14:21:00,79.8,74.2,30.05,NNE,17,3.5,3.5,83,0.00,CLR,,1.77,WeatherDisplay:10.37,2013-01-23 20:21:00,
2013-01-23 14:26:00,79.9,74.3,30.05,NW,307,3.5,3.5,83,0.00,CLR,,1.77,WeatherDisplay:10.37,2013-01-23 20:26:00,
2013-01-23 14:31:00,79.8,74.2,30.04,NW,305,3.5,3.5,83,0.00,CLR,,1.77,WeatherDisplay:10.37,2013-01-23 20:31:00,
2013-01-23 14:36:00,80.0,74.4,30.04,NNW,330,2.3,2.3,83,0.00,CLR,,1.77,WeatherDisplay:10.37,2013-01-23 20:36:00,
2013-01-23 14:41:00,80.1,74.5,30.04,NW,309,0.0,0.0,83,0.00,CLR,,1.77,WeatherDisplay:10.37,2013-01-23 20:41:00,
2013-01-23 14:46:00,80.1,73.7,30.04,NW,326,4.0,4.0,81,0.00,CLR,,1.77,WeatherDisplay:10.37,2013-01-23 20:46:00,
2013-01-23 14:51:00,80.1,73.7,30.04,NNW,334,3.5,3.5,81,0.00,CLR,,1.77,WeatherDisplay:10.37,2013-01-23 20:51:00,
2013-01-23 14:56:00,80.1,73.7,30.04,NNW,338,2.3,2.3,81,0.00,CLR,,1.77,WeatherDisplay:10.37,2013-01-23 20:56:00,
2013-01-23 15:01:00,80.2,73.8,30.04,North,357,0.0,0.2,81,0.00,CLR,,1.77,WeatherDisplay:10.37,2013-01-23 21:01:00,
2013-01-23 15:06:00,80.3,73.6,30.04,ENE,66,2.3,2.3,80,0.00,CLR,,1.77,WeatherDisplay:10.37,2013-01-23 21:06:00,
2013-01-23 15:11:00,80.6,73.9,30.04,NNE,20,2.0,2.0,80,0.00,CLR,,1.77,WeatherDisplay:10.37,2013-01-23 21:11:00,
2013-01-23 15:16:00,80.6,73.5,30.03,East,86,3.5,3.5,79,0.00,CLR,,1.77,WeatherDisplay:10.37,2013-01-23 21:16:00,
2013-01-23 15:21:00,80.5,73.0,30.04,NNW,338,3.5,3.5,78,0.00,CLR,,1.77,WeatherDisplay:10.37,2013-01-23 21:21:00,
2013-01-23 15:26:00,80.4,74.0,30.04,East,79,3.5,3.5,81,0.00,CLR,,1.77,WeatherDisplay:10.37,2013-01-23 21:26:00,
2013-01-23 15:31:00,79.6,73.3,30.04,ENE,70,2.3,2.3,81,0.00,CLR,,1.77,WeatherDisplay:10.37,2013-01-23 21:31:00,
2013-01-23 15:36:00,79.5,74.2,30.04,NE,44,0.0,0.0,84,0.00,CLR,,1.77,WeatherDisplay:10.37,2013-01-23 21:36:00,
2013-01-23 15:41:00,79.7,73.7,30.04,NNW,333,2.3,2.3,82,0.00,CLR,,1.77,WeatherDisplay:10.37,2013-01-23 21:41:00,
2013-01-23 15:46:00,79.8,74.5,30.04,NNE,13,1.1,1.1,84,0.00,CLR,,1.77,WeatherDisplay:10.37,2013-01-23 21:46:00,
2013-01-23 15:51:00,79.7,73.7,30.04,East,82,0.0,0.0,82,0.00,CLR,,1.77,WeatherDisplay:10.37,2013-01-23 21:51:00,
2013-01-23 15:56:00,79.3,73.7,30.04,East,86,0.0,0.0,83,0.00,CLR,,1.77,WeatherDisplay:10.37,2013-01-23 21:56:00,
2013-01-23 16:01:00,79.4,73.4,30.04,West,277,0.0,0.0,82,0.00,CLR,,1.77,WeatherDisplay:10.37,2013-01-23 22:01:00,
2013-01-23 16:06:00,79.3,73.7,30.04,West,266,1.1,0.0,83,0.00,CLR,,1.77,WeatherDisplay:10.37,2013-01-23 22:06:00,
2013-01-23 16:12:00,79.2,73.6,30.04,West,270,1.1,1.1,83,0.00,CLR,,1.77,WeatherDisplay:10.37,2013-01-23 22:12:00,
2013-01-23 16:17:00,78.9,73.7,30.04,WSW,252,0.0,0.0,84,0.00,CLR,,1.77,WeatherDisplay:10.37,2013-01-23 22:17:00,
2013-01-23 16:22:00,78.7,73.1,30.05,WSW,243,1.1,0.0,83,0.00,CLR,,1.77,WeatherDisplay:10.37,2013-01-23 22:22:00,
2013-01-23 16:27:00,78.7,73.1,30.05,SSW,203,1.1,1.1,83,0.00,CLR,,1.77,WeatherDisplay:10.37,2013-01-23 22:27:00,
2013-01-23 16:32:00,78.8,73.2,30.05,WSW,243,1.1,0.0,83,0.00,CLR,,1.77,WeatherDisplay:10.37,2013-01-23 22:32:00,
2013-01-23 16:37:00,78.9,73.3,30.05,SW,226,1.1,0.0,83,0.00,CLR,,1.77,WeatherDisplay:10.37,2013-01-23 22:37:00,
2013-01-23 16:42:00,78.8,73.2,30.05,WSW,243,2.0,2.0,83,0.00,CLR,,1.77,WeatherDisplay:10.37,2013-01-23 22:42:00,
2013-01-23 16:47:00,78.8,73.2,30.05,SW,229,1.1,0.0,83,0.00,CLR,,1.77,WeatherDisplay:10.37,2013-01-23 22:47:00,
2013-01-23 16:52:00,78.8,73.6,30.05,SW,216,0.0,0.0,84,0.00,CLR,,1.77,WeatherDisplay:10.37,2013-01-23 22:52:00,
2013-01-23 16:57:00,78.8,73.6,30.05,SW,216,0.0,0.0,84,0.00,CLR,,1.77,WeatherDisplay:10.37,2013-01-23 22:57:00,
2013-01-23 17:02:00,78.5,72.9,30.05,West,270,1.1,0.0,83,0.00,CLR,,1.77,WeatherDisplay:10.37,2013-01-23 23:02:00,
2013-01-23 17:07:00,78.2,73.3,30.06,West,272,1.1,0.0,85,0.00,CLR,,1.77,WeatherDisplay:10.37,2013-01-23 23:07:00,
2013-01-23 17:12:00,77.9,73.0,30.06,West,277,1.1,1.1,85,0.00,CLR,,1.77,WeatherDisplay:10.37,2013-01-23 23:12:00,
2013-01-23 17:17:00,77.7,72.8,30.06,NW,304,1.1,1.1,85,0.00,CLR,,1.77,WeatherDisplay:10.37,2013-01-23 23:17:00,
2013-01-23 17:22:00,77.5,72.6,30.06,NW,305,0.0,0.1,85,0.00,CLR,,1.77,WeatherDisplay:10.37,2013-01-23 23:22:00,
2013-01-23 17:27:00,77.4,72.9,30.06,WNW,286,0.0,0.0,86,0.00,CLR,,1.77,WeatherDisplay:10.37,2013-01-23 23:27:00,
2013-01-23 17:32:00,77.2,72.7,30.06,WNW,299,1.1,1.1,86,0.00,CLR,,1.77,WeatherDisplay:10.37,2013-01-23 23:32:00,
2013-01-23 17:37:00,77.1,72.6,30.07,NNW,334,1.1,1.1,86,0.00,CLR,,1.77,WeatherDisplay:10.37,2013-01-23 23:37:00,
2013-01-23 17:42:00,77.0,72.8,30.07,NW,305,0.0,0.0,87,0.00,CLR,,1.77,WeatherDisplay:10.37,2013-01-23 23:42:00,
2013-01-23 17:47:00,76.9,72.4,30.07,NW,307,1.1,1.1,86,0.00,CLR,,1.77,WeatherDisplay:10.37,2013-01-23 23:47:00,
2013-01-23 17:52:00,76.8,72.6,30.07,NW,307,0.0,0.0,87,0.00,CLR,,1.77,WeatherDisplay:10.37,2013-01-23 23:52:00,
2013-01-23 17:57:00,76.8,73.3,30.07,NW,307,0.0,0.0,89,0.00,CLR,,1.77,WeatherDisplay:10.37,2013-01-23 23:57:00,
2013-01-23 18:02:00,76.6,73.1,30.07,NW,308,0.0,0.0,89,0.00,CLR,,1.77,WeatherDisplay:10.37,2013-01-24 00:02:00,
2013-01-23 18:07:00,76.4,73.2,30.08,NW,308,0.0,0.0,90,0.00,CLR,,1.77,WeatherDisplay:10.37,2013-01-24 00:07:00,
2013-01-23 18:12:00,76.3,73.5,30.08,NW,308,0.0,0.0,91,0.00,CLR,,1.77,WeatherDisplay:10.37,2013-01-24 00:12:00,
2013-01-23 18:17:00,76.1,73.0,30.08,NW,307,0.0,0.0,90,0.00,CLR,,1.77,WeatherDisplay:10.37,2013-01-24 00:17:00,
2013-01-23 18:22:00,76.0,72.9,30.08,NW,312,2.3,2.3,90,0.00,CLR,,1.77,WeatherDisplay:10.37,2013-01-24 00:22:00,
2013-01-23 18:27:00,76.0,72.5,30.08,NW,326,4.0,4.0,89,0.00,CLR,,1.77,WeatherDisplay:10.37,2013-01-24 00:27:00,
2013-01-23 18:32:00,76.0,71.8,30.08,NNW,342,3.5,3.5,87,0.00,CLR,,1.77,WeatherDisplay:10.37,2013-01-24 00:32:00,
2013-01-23 18:37:00,75.8,72.0,30.08,NW,319,3.5,3.5,88,0.00,CLR,,1.77,WeatherDisplay:10.37,2013-01-24 00:37:00,
2013-01-23 18:42:00,75.3,71.5,30.09,NW,319,3.5,3.5,88,0.01,RA,,1.78,WeatherDisplay:10.37,2013-01-24 00:42:00,
2013-01-23 18:47:00,74.7,71.2,30.09,NNW,342,2.3,2.3,89,0.02,RA,,1.79,WeatherDisplay:10.37,2013-01-24 00:47:00,
2013-01-23 18:52:00,74.4,71.6,30.09,NNW,346,2.3,2.3,91,0.02,RA,,1.79,WeatherDisplay:10.37,2013-01-24 00:52:00,
2013-01-23 18:57:00,74.4,71.9,30.09,North,349,2.3,2.3,92,0.02,CLR,,1.79,WeatherDisplay:10.37,2013-01-24 00:57:00,
2013-01-23 19:02:00,74.4,71.9,30.09,NE,49,1.1,1.1,92,0.02,CLR,,1.79,WeatherDisplay:10.37,2013-01-24 01:02:00,
2013-01-23 19:07:00,74.3,71.8,30.09,NNE,33,1.1,0.0,92,0.02,CLR,,1.79,WeatherDisplay:10.37,2013-01-24 01:07:00,
2013-01-23 19:12:00,74.2,71.7,30.09,NW,326,2.3,2.3,92,0.02,CLR,,1.79,WeatherDisplay:10.37,2013-01-24 01:12:00,
2013-01-23 19:17:00,74.2,71.7,30.09,NNW,338,2.3,2.3,92,0.02,CLR,,1.79,WeatherDisplay:10.37,2013-01-24 01:17:00,
2013-01-23 19:22:00,74.1,71.9,30.09,WNW,295,1.1,0.0,93,0.02,CLR,,1.79,WeatherDisplay:10.37,2013-01-24 01:22:00,
2013-01-23 19:27:00,74.1,71.9,30.10,NNW,329,1.1,1.1,93,0.02,CLR,,1.79,WeatherDisplay:10.37,2013-01-24 01:27:00,
2013-01-23 19:32:00,74.2,72.4,30.10,NW,319,2.3,2.3,94,0.02,CLR,,1.79,WeatherDisplay:10.37,2013-01-24 01:32:00,
2013-01-23 19:37:00,74.2,72.0,30.09,NW,311,0.0,0.0,93,0.02,CLR,,1.79,WeatherDisplay:10.37,2013-01-24 01:37:00,
2013-01-23 19:42:00,74.2,72.0,30.09,NNW,348,3.5,3.5,93,0.01,CLR,,1.79,WeatherDisplay:10.37,2013-01-24 01:42:00,
2013-01-23 19:47:00,74.2,71.7,30.09,NNW,332,2.3,2.3,92,0.00,CLR,,1.79,WeatherDisplay:10.37,2013-01-24 01:47:00,
2013-01-23 19:52:00,74.2,71.7,30.10,NNW,342,2.3,2.3,92,0.00,CLR,,1.79,WeatherDisplay:10.37,2013-01-24 01:52:00,
2013-01-23 19:57:00,74.2,71.7,30.10,NNE,15,3.5,3.5,92,0.00,CLR,,1.79,WeatherDisplay:10.37,2013-01-24 01:57:00,
2013-01-23 20:02:00,74.1,71.3,30.10,NE,41,0.0,0.0,91,0.00,CLR,,1.79,WeatherDisplay:10.37,2013-01-24 02:02:00,
2013-01-23 20:07:00,74.0,71.2,30.10,NNW,334,1.1,1.1,91,0.00,CLR,,1.79,WeatherDisplay:10.37,2013-01-24 02:07:00,
2013-01-23 20:12:00,73.9,71.1,30.10,NNW,338,1.1,1.1,91,0.00,CLR,,1.79,WeatherDisplay:10.37,2013-01-24 02:12:00,
2013-01-23 20:17:00,73.8,71.0,30.10,NNW,343,0.0,0.0,91,0.00,CLR,,1.79,WeatherDisplay:10.37,2013-01-24 02:17:00,
2013-01-23 20:22:00,73.7,70.9,30.10,NNW,327,1.1,1.1,91,0.00,CLR,,1.79,WeatherDisplay:10.37,2013-01-24 02:22:00,
2013-01-23 20:27:00,73.8,71.3,30.10,NNW,339,1.1,0.0,92,0.00,CLR,,1.79,WeatherDisplay:10.37,2013-01-24 02:27:00,
2013-01-23 20:32:00,73.9,71.4,30.10,NNW,333,0.0,0.0,92,0.00,CLR,,1.79,WeatherDisplay:10.37,2013-01-24 02:32:00,
2013-01-23 20:37:00,73.9,71.4,30.10,NNW,333,0.0,0.0,92,0.00,CLR,,1.79,WeatherDisplay:10.37,2013-01-24 02:37:00,
2013-01-23 20:42:00,74.0,71.5,30.10,NNW,330,1.1,1.1,92,0.00,CLR,,1.79,WeatherDisplay:10.37,2013-01-24 02:42:00,
2013-01-23 20:47:00,74.0,71.5,30.11,NNW,330,0.0,0.0,92,0.00,CLR,,1.79,WeatherDisplay:10.37,2013-01-24 02:47:00,
2013-01-23 20:52:00,73.9,71.7,30.11,NNW,333,1.1,1.1,93,0.00,CLR,,1.79,WeatherDisplay:10.37,2013-01-24 02:52:00,
2013-01-23 20:57:00,73.9,71.7,30.11,NNW,333,1.1,1.1,93,0.00,CLR,,1.79,WeatherDisplay:10.37,2013-01-24 02:57:00,
2013-01-23 21:02:00,73.8,71.6,30.11,NNW,333,1.1,0.0,93,0.00,CLR,,1.79,WeatherDisplay:10.37,2013-01-24 03:02:00,
2013-01-23 21:07:00,73.8,72.0,30.11,NNW,333,0.0,0.0,94,0.00,CLR,,1.79,WeatherDisplay:10.37,2013-01-24 03:07:00,
2013-01-23 21:12:00,73.9,72.1,30.11,NNW,333,0.0,0.0,94,0.00,CLR,,1.79,WeatherDisplay:10.37,2013-01-24 03:12:00,
2013-01-23 21:17:00,74.0,72.2,30.11,NNW,333,0.0,0.0,94,0.00,CLR,,1.79,WeatherDisplay:10.37,2013-01-24 03:17:00,
2013-01-23 21:22:00,74.1,72.3,30.11,North,5,0.0,0.0,94,0.00,CLR,,1.79,WeatherDisplay:10.37,2013-01-24 03:22:00,
2013-01-23 21:27:00,74.2,72.4,30.10,North,4,0.0,0.0,94,0.00,CLR,,1.79,WeatherDisplay:10.37,2013-01-24 03:27:00,
2013-01-23 21:32:00,74.1,72.3,30.10,North,4,1.1,1.1,94,0.00,CLR,,1.79,WeatherDisplay:10.37,2013-01-24 03:32:00,
2013-01-23 21:37:00,74.2,72.4,30.10,NNE,17,0.0,0.0,94,0.00,CLR,,1.79,WeatherDisplay:10.37,2013-01-24 03:37:00,
2013-01-23 21:42:00,74.3,72.5,30.10,NE,45,0.0,0.0,94,0.00,CLR,,1.79,WeatherDisplay:10.37,2013-01-24 03:42:00,
2013-01-23 21:47:00,74.5,72.7,30.10,NE,46,0.0,0.0,94,0.00,CLR,,1.79,WeatherDisplay:10.37,2013-01-24 03:47:00,
2013-01-23 21:52:00,74.6,72.4,30.10,NE,46,0.0,0.0,93,0.00,CLR,,1.79,WeatherDisplay:10.37,2013-01-24 03:52:00,
2013-01-23 21:57:00,74.6,72.4,30.10,NE,46,0.0,0.0,93,0.00,CLR,,1.79,WeatherDisplay:10.37,2013-01-24 03:57:00,
2013-01-23 22:02:00,74.8,72.3,30.10,NE,45,0.0,0.0,92,0.00,CLR,,1.79,WeatherDisplay:10.37,2013-01-24 04:02:00,
2013-01-23 22:07:00,74.9,72.4,30.10,NE,44,0.0,0.0,92,0.00,CLR,,1.79,WeatherDisplay:10.37,2013-01-24 04:07:00,
2013-01-23 22:12:00,75.0,72.5,30.10,ENE,67,1.1,1.1,92,0.00,CLR,,1.79,WeatherDisplay:10.37,2013-01-24 04:12:00,
2013-01-23 22:18:00,75.1,72.6,30.10,NNE,15,1.1,1.1,92,0.00,CLR,,1.79,WeatherDisplay:10.37,2013-01-24 04:18:00,
2013-01-23 22:23:00,75.2,72.4,30.10,North,4,1.1,1.1,91,0.00,CLR,,1.79,WeatherDisplay:10.37,2013-01-24 04:23:00,
2013-01-23 22:28:00,75.2,72.4,30.10,NNE,31,1.1,1.1,91,0.00,CLR,,1.79,WeatherDisplay:10.37,2013-01-24 04:28:00,
2013-01-23 22:33:00,75.2,72.4,30.09,NNE,30,0.0,0.0,91,0.00,CLR,,1.79,WeatherDisplay:10.37,2013-01-24 04:33:00,
2013-01-23 22:38:00,75.2,72.4,30.10,NNE,30,1.1,1.1,91,0.00,CLR,,1.79,WeatherDisplay:10.37,2013-01-24 04:38:00,
2013-01-23 22:43:00,75.2,72.4,30.10,NNW,338,0.0,0.0,91,0.00,CLR,,1.79,WeatherDisplay:10.37,2013-01-24 04:43:00,
2013-01-23 22:48:00,75.3,72.5,30.09,North,356,0.0,0.3,91,0.00,CLR,,1.79,WeatherDisplay:10.37,2013-01-24 04:48:00,
2013-01-23 22:53:00,75.3,72.2,30.09,NNE,13,1.1,1.1,90,0.00,CLR,,1.79,WeatherDisplay:10.37,2013-01-24 04:53:00,
2013-01-23 22:58:00,75.4,72.3,30.09,North,11,0.0,0.0,90,0.00,CLR,,1.79,WeatherDisplay:10.37,2013-01-24 04:58:00,
2013-01-23 23:00:00,75.4,72.3,30.09,NNE,15,2.3,0.0,90,0.00,CLR,,1.79,WeatherDisplay:10.37,2013-01-24 05:00:00,
2013-01-23 23:03:00,75.4,72.3,30.09,NNE,23,2.0,2.0,90,0.00,CLR,,1.79,WeatherDisplay:10.37,2013-01-24 05:03:00,
2013-01-23 23:08:00,75.5,72.4,30.09,NNE,30,3.5,3.5,90,0.00,CLR,,1.79,WeatherDisplay:10.37,2013-01-24 05:08:00,
2013-01-23 23:13:00,75.5,72.4,30.09,NE,49,5.8,5.8,90,0.00,CLR,,1.79,WeatherDisplay:10.37,2013-01-24 05:13:00,
2013-01-23 23:18:00,75.4,72.3,30.09,North,358,4.6,4.6,90,0.00,CLR,,1.79,WeatherDisplay:10.37,2013-01-24 05:18:00,
2013-01-23 23:23:00,75.3,72.2,30.09,NNW,333,5.8,5.8,90,0.00,CLR,,1.79,WeatherDisplay:10.37,2013-01-24 05:23:00,
2013-01-23 23:28:00,75.1,72.3,30.09,NE,37,3.5,3.5,91,0.00,CLR,,1.79,WeatherDisplay:10.37,2013-01-24 05:28:00,
2013-01-23 23:33:00,75.0,72.2,30.09,North,360,5.0,5.0,91,0.00,CLR,,1.79,WeatherDisplay:10.37,2013-01-24 05:33:00,
2013-01-23 23:39:00,75.0,72.2,30.09,NNW,348,3.5,3.5,91,0.00,CLR,,1.79,WeatherDisplay:10.37,2013-01-24 05:39:00,
2013-01-23 23:44:00,75.0,72.2,30.09,NNW,348,4.6,4.6,91,0.00,CLR,,1.79,WeatherDisplay:10.37,2013-01-24 05:44:00,
2013-01-23 23:49:00,74.9,72.4,30.09,NNW,340,8.1,8.1,92,0.00,CLR,,1.79,WeatherDisplay:10.37,2013-01-24 05:49:00,
2013-01-23 23:54:00,74.8,72.3,30.09,ENE,61,4.6,4.6,92,0.00,CLR,,1.79,WeatherDisplay:10.37,2013-01-24 05:54:00,
2013-01-23 23:59:00,74.7,72.5,30.08,North,359,6.9,6.9,93,0.01,RA,,1.80,WeatherDisplay:10.37,2013-01-24 05:59:00,